Time;durP1;ratioP1;P1;durP2;ratioP2;P2;SDS_P1;SDS_P2;PMS_P1;PMS_P2;Temp;Humidity;BMP_temperature;BMP_pressure;BME280_temperature;BME280_humidity;BME280_pressure;Samples;Min_cycle;Max_cycle;Signal;HPM_P1;HPM_P2
2022/08/27 00:00:14;;;;;;;0.30;0.30;;;;;;;17.48;67.82;101858.94;2112500;28;20071;-70
2022/08/27 00:01:17;;;;;;;0.40;0.40;;;;;;;17.48;67.92;101859.72;2105038;28;20048;-71
2022/08/27 00:02:20;;;;;;;0.30;0.30;;;;;;;17.48;67.96;101861.66;2110911;28;20091;-70
2022/08/27 00:03:22;;;;;;;0.35;0.35;;;;;;;17.48;68.16;101858.94;2113496;28;20422;-71
2022/08/27 00:04:25;;;;;;;0.30;0.30;;;;;;;17.51;67.90;101855.47;2113870;28;20051;-71
2022/08/27 00:05:28;;;;;;;0.30;0.30;;;;;;;17.51;67.59;101850.00;2107554;28;20533;-71
2022/08/27 00:06:31;;;;;;;0.30;0.30;;;;;;;17.51;67.98;101858.19;2105980;28;20442;-71
2022/08/27 00:07:34;;;;;;;0.40;0.40;;;;;;;17.51;68.01;101859.00;2113800;28;20066;-71
2022/08/27 00:08:36;;;;;;;0.40;0.40;;;;;;;17.51;67.95;101855.47;2113611;28;20048;-71
2022/08/27 00:09:40;;;;;;;0.30;0.30;;;;;;;17.51;68.14;101848.06;2113429;28;20494;-71
2022/08/27 00:10:43;;;;;;;0.30;0.30;;;;;;;17.52;67.86;101846.16;2097115;28;20072;-72
2022/08/27 00:11:45;;;;;;;0.30;0.30;;;;;;;17.53;68.03;101844.97;2101254;28;20048;-71
2022/08/27 00:12:48;;;;;;;0.30;0.30;;;;;;;17.54;67.88;101849.28;2105369;28;20048;-71
2022/08/27 00:13:50;;;;;;;0.30;0.30;;;;;;;17.53;68.16;101853.97;2113349;28;20044;-71
2022/08/27 00:14:53;;;;;;;0.30;0.30;;;;;;;17.55;68.02;101853.63;2109670;28;20071;-71
2022/08/27 00:15:55;;;;;;;0.30;0.30;;;;;;;17.56;67.98;101853.25;2105439;28;20048;-71
2022/08/27 00:16:59;;;;;;;0.30;0.30;;;;;;;17.58;67.80;101855.63;2112255;28;20113;-71
2022/08/27 00:18:01;;;;;;;0.30;0.30;;;;;;;17.57;67.93;101854.81;2113019;28;20097;-71
2022/08/27 00:19:05;;;;;;;0.20;0.20;;;;;;;17.59;67.78;101852.53;2113857;28;20060;-71
2022/08/27 00:20:08;;;;;;;0.30;0.30;;;;;;;17.58;67.79;101850.91;2111772;28;20132;-71
2022/08/27 00:21:11;;;;;;;0.40;0.40;;;;;;;17.58;67.81;101850.16;2112108;28;20080;-71
2022/08/27 00:22:13;;;;;;;0.30;0.30;;;;;;;17.58;67.61;101850.16;2115566;27;20111;-71
2022/08/27 00:23:16;;;;;;;0.30;0.30;;;;;;;17.55;67.75;101843.47;2112299;28;20066;-71
2022/08/27 00:24:18;;;;;;;0.30;0.30;;;;;;;17.53;68.17;101848.50;2112430;28;20432;-71
2022/08/27 00:25:21;;;;;;;0.30;0.30;;;;;;;17.53;67.98;101844.97;2114833;28;20176;-71
2022/08/27 00:26:23;;;;;;;0.30;0.30;;;;;;;17.51;68.00;101839.09;2106980;28;20089;-71
2022/08/27 00:27:26;;;;;;;0.30;0.30;;;;;;;17.51;68.16;101844.56;2105906;28;20609;-71
2022/08/27 00:28:29;;;;;;;0.30;0.30;;;;;;;17.50;67.94;101834.78;2106952;28;20589;-70
2022/08/27 00:29:32;;;;;;;0.30;0.30;;;;;;;17.51;68.09;101839.09;2104253;28;20044;-69
2022/08/27 00:30:34;;;;;;;0.30;0.30;;;;;;;17.49;68.12;101842.19;2106187;28;20055;-69
2022/08/27 00:31:37;;;;;;;0.30;0.30;;;;;;;17.47;68.03;101835.53;2106943;28;20652;-70
2022/08/27 00:32:41;;;;;;;0.30;0.30;;;;;;;17.48;67.94;101834.34;2106323;28;20483;-70
2022/08/27 00:33:45;;;;;;;0.30;0.30;;;;;;;17.45;67.93;101837.81;2114474;28;20059;-69
2022/08/27 00:34:47;;;;;;;0.30;0.30;;;;;;;17.44;68.25;101831.56;2113819;28;20048;-70
2022/08/27 00:35:50;;;;;;;0.30;0.30;;;;;;;17.42;68.28;101825.66;2108869;28;20074;-70
2022/08/27 00:36:52;;;;;;;0.22;0.22;;;;;;;17.42;68.17;101830.31;2107130;28;20079;-70
2022/08/27 00:37:55;;;;;;;0.30;0.30;;;;;;;17.41;68.14;101824.06;2112924;28;20083;-71
2022/08/27 00:38:57;;;;;;;0.40;0.40;;;;;;;17.38;68.06;101824.00;2108200;28;20071;-71
2022/08/27 00:40:00;;;;;;;0.30;0.30;;;;;;;17.37;68.43;101827.88;2098685;28;20061;-71
2022/08/27 00:41:03;;;;;;;0.30;0.30;;;;;;;17.37;68.13;101819.69;2104946;28;20434;-71
2022/08/27 00:42:07;;;;;;;0.30;0.30;;;;;;;17.36;68.36;101829.03;2106802;28;20104;-71
2022/08/27 00:43:09;;;;;;;0.30;0.30;;;;;;;17.32;68.30;101826.25;2106804;28;20052;-71
2022/08/27 00:44:13;;;;;;;0.30;0.30;;;;;;;17.31;68.44;101823.88;2108970;28;20503;-71
2022/08/27 00:45:17;;;;;;;0.30;0.30;;;;;;;17.31;68.82;101816.47;2110469;28;20115;-69
2022/08/27 00:46:25;;;;;;;0.30;0.30;;;;;;;17.30;68.48;101825.81;2115253;28;20056;-70
2022/08/27 00:47:30;;;;;;;0.30;0.30;;;;;;;17.28;68.77;101824.59;2104813;28;20142;-69
2022/08/27 00:48:36;;;;;;;0.30;0.30;;;;;;;17.27;68.63;101823.00;2107385;28;20131;-69
2022/08/27 00:49:42;;;;;;;0.30;0.30;;;;;;;17.26;68.65;101824.16;2114681;28;20503;-69
2022/08/27 00:50:48;;;;;;;0.30;0.30;;;;;;;17.24;68.72;101821.00;2112011;28;20075;-69
2022/08/27 00:51:56;;;;;;;0.28;0.28;;;;;;;17.23;68.43;101827.63;2102842;28;20123;-69
2022/08/27 00:53:01;;;;;;;0.30;0.30;;;;;;;17.21;68.84;101825.25;2104931;28;20083;-69
2022/08/27 00:54:06;;;;;;;0.30;0.30;;;;;;;17.20;68.83;101828.34;2105951;28;20131;-70
2022/08/27 00:55:12;;;;;;;0.30;0.30;;;;;;;17.18;69.03;101825.19;2106579;28;20079;-69
2022/08/27 00:56:19;;;;;;;0.30;0.30;;;;;;;17.16;68.74;101835.66;2110287;28;20056;-69
2022/08/27 00:57:22;;;;;;;0.40;0.40;;;;;;;17.14;68.73;101824.34;2101556;28;20119;-70
2022/08/27 00:58:27;;;;;;;0.38;0.38;;;;;;;17.13;68.99;101829.00;2099353;28;20052;-69
2022/08/27 00:59:31;;;;;;;0.30;0.30;;;;;;;17.14;69.09;101835.25;2108101;28;20086;-70
2022/08/27 01:00:34;;;;;;;0.32;0.32;;;;;;;17.13;68.97;101833.66;2103719;28;20507;-70
2022/08/27 01:02:17;;;;;;;0.30;0.30;;;;;;;17.12;69.17;101830.16;2106701;28;20056;-70
2022/08/27 01:02:59;;;;;;;0.30;0.30;;;;;;;17.07;69.17;101832.38;2098244;28;20500;-70
2022/08/27 01:04:05;;;;;;;0.30;0.30;;;;;;;17.07;69.25;101833.16;2110025;28;20039;-70
2022/08/27 01:05:11;;;;;;;0.30;0.30;;;;;;;17.07;68.97;101835.91;2114267;27;20051;-70
2022/08/27 01:06:16;;;;;;;0.28;0.28;;;;;;;17.07;69.24;101837.81;2115105;28;20051;-71
2022/08/27 01:07:19;;;;;;;0.30;0.30;;;;;;;17.06;69.20;101828.84;2102134;28;20109;-70
2022/08/27 01:08:24;;;;;;;0.30;0.30;;;;;;;17.10;69.43;101829.72;2098242;28;20532;-70
2022/08/27 01:09:27;;;;;;;0.20;0.20;;;;;;;17.08;69.41;101828.47;2105283;28;20128;-70
2022/08/27 01:10:30;;;;;;;0.20;0.20;;;;;;;17.10;69.17;101837.91;2108663;28;20127;-70
2022/08/27 01:11:33;;;;;;;0.30;0.30;;;;;;;17.12;69.25;101837.53;2115238;28;20089;-70
2022/08/27 01:12:36;;;;;;;0.30;0.30;;;;;;;17.13;69.07;101831.72;2114772;28;20087;-70
2022/08/27 01:13:38;;;;;;;0.30;0.30;;;;;;;17.12;69.01;101843.00;2114762;27;20055;-70
2022/08/27 01:15:05;;;;;;;0.22;0.22;;;;;;;17.11;69.11;101833.25;2101731;28;20472;-70
2022/08/27 01:16:10;;;;;;;0.30;0.30;;;;;;;17.09;69.21;101836.34;2106511;28;20055;-70
2022/08/27 01:17:14;;;;;;;0.20;0.20;;;;;;;17.13;69.36;101839.09;2101692;28;20121;-69
2022/08/27 01:18:18;;;;;;;0.30;0.30;;;;;;;17.13;69.05;101842.63;2098305;28;20129;-70
2022/08/27 01:19:30;;;;;;;0.22;0.22;;;;;;;17.13;68.83;101839.91;2099156;28;20105;-70
2022/08/27 01:20:42;;;;;;;0.30;0.30;;;;;;;17.13;68.99;101844.56;2100954;28;20052;-70
2022/08/27 01:21:51;;;;;;;0.30;0.30;;;;;;;17.14;69.07;101840.72;2098659;28;20105;-69
2022/08/27 01:23:05;;;;;;;0.30;0.30;;;;;;;17.13;69.11;101839.09;2112294;28;20066;-70
2022/08/27 01:24:25;;;;;;;0.30;0.30;;;;;;;17.12;68.98;101832.09;2100938;28;20048;-70
2022/08/27 01:25:29;;;;;;;0.30;0.30;;;;;;;17.07;69.07;101840.56;2106287;28;20086;-69
2022/08/27 01:26:32;;;;;;;0.30;0.30;;;;;;;17.05;69.17;101835.47;2098386;28;20471;-70
2022/08/27 01:27:36;;;;;;;0.30;0.30;;;;;;;17.05;69.21;101840.13;2098362;28;20049;-70
2022/08/27 01:28:40;;;;;;;0.30;0.30;;;;;;;17.03;69.23;101837.75;2098011;28;20508;-70
2022/08/27 01:29:44;;;;;;;0.25;0.25;;;;;;;17.01;69.40;101842.00;2098046;28;20119;-69
2022/08/27 01:30:47;;;;;;;0.20;0.20;;;;;;;17.01;69.31;101837.34;2098151;28;20121;-70
2022/08/27 01:31:49;;;;;;;0.30;0.30;;;;;;;17.01;69.10;101836.53;2103997;28;20085;-69
2022/08/27 01:32:53;;;;;;;0.30;0.30;;;;;;;17.00;69.20;101838.47;2105960;28;20155;-69
2022/08/27 01:33:58;;;;;;;0.30;0.30;;;;;;;17.00;69.26;101834.97;2105994;28;20040;-70
2022/08/27 01:35:02;;;;;;;0.30;0.30;;;;;;;16.97;69.45;101827.47;2106352;28;20055;-71
2022/08/27 01:36:05;;;;;;;0.40;0.40;;;;;;;16.95;69.38;101835.25;2106558;28;20040;-70
2022/08/27 01:37:12;;;;;;;0.20;0.20;;;;;;;16.93;69.56;101834.81;2101675;28;20049;-70
2022/08/27 01:38:15;;;;;;;0.30;0.30;;;;;;;16.89;69.53;101840.19;2101330;28;20105;-70
2022/08/27 01:39:33;;;;;;;0.20;0.20;;;;;;;16.87;69.91;101828.84;2098220;28;20052;-70
2022/08/27 01:40:35;;;;;;;0.20;0.20;;;;;;;16.86;69.87;101829.19;2102664;28;20060;-71
2022/08/27 01:41:39;;;;;;;0.30;0.30;;;;;;;16.87;69.76;101844.44;2106031;28;20052;-70
2022/08/27 01:42:44;;;;;;;0.30;0.30;;;;;;;16.89;69.83;101836.66;2098204;28;20151;-70
2022/08/27 01:43:47;;;;;;;0.30;0.30;;;;;;;16.88;69.88;101837.81;2099460;28;20123;-69
2022/08/27 01:44:52;;;;;;;0.30;0.30;;;;;;;16.89;69.65;101839.41;2099499;28;20395;-70
2022/08/27 01:45:55;;;;;;;0.30;0.30;;;;;;;16.88;69.58;101837.81;2098175;28;20056;-69
2022/08/27 01:46:57;;;;;;;0.35;0.35;;;;;;;16.89;69.90;101842.13;2106938;28;20048;-70
2022/08/27 01:48:01;;;;;;;0.40;0.40;;;;;;;16.87;69.69;101836.25;2106604;28;20052;-69
2022/08/27 01:49:03;;;;;;;0.30;0.30;;;;;;;16.86;69.77;101834.66;2097990;28;20455;-70
2022/08/27 01:50:12;;;;;;;0.30;0.30;;;;;;;16.88;69.63;101843.28;2104943;28;20475;-70
2022/08/27 01:51:15;;;;;;;0.30;0.30;;;;;;;16.83;69.87;101833.44;2103657;28;20934;-69
2022/08/27 01:52:21;;;;;;;0.30;0.30;;;;;;;16.86;69.67;101840.13;2107424;28;20105;-69
2022/08/27 01:53:24;;;;;;;0.30;0.30;;;;;;;16.84;69.69;101832.28;2112031;28;20100;-69
2022/08/27 01:54:27;;;;;;;0.30;0.30;;;;;;;16.85;69.56;101841.28;2097797;28;20048;-70
2022/08/27 01:55:31;;;;;;;0.30;0.30;;;;;;;16.86;69.69;101838.19;2097665;28;20534;-70
2022/08/27 01:56:33;;;;;;;0.20;0.20;;;;;;;16.83;69.86;101830.72;2098090;28;20098;-69
2022/08/27 01:57:36;;;;;;;0.30;0.30;;;;;;;16.82;69.31;101840.06;2097914;28;20052;-69
2022/08/27 01:58:39;;;;;;;0.30;0.30;;;;;;;16.84;69.71;101839.69;2099899;28;20564;-69
2022/08/27 01:59:41;;;;;;;0.30;0.30;;;;;;;16.82;69.56;101839.25;2114855;28;20059;-70
2022/08/27 02:00:47;;;;;;;0.30;0.30;;;;;;;16.82;69.59;101833.81;2114616;27;20055;-69
2022/08/27 02:01:55;;;;;;;0.20;0.20;;;;;;;16.80;69.45;101833.38;2114263;27;20056;-69
2022/08/27 02:02:59;;;;;;;0.30;0.30;;;;;;;16.80;69.57;101836.09;2114724;28;20052;-70
2022/08/27 02:04:01;;;;;;;0.40;0.40;;;;;;;16.79;69.57;101839.97;2113735;28;20084;-70
2022/08/27 02:05:04;;;;;;;0.32;0.32;;;;;;;16.78;69.49;101836.47;2113906;28;20562;-71
2022/08/27 02:06:09;;;;;;;0.40;0.40;;;;;;;16.78;69.49;101836.47;2114685;28;20133;-71
2022/08/27 02:07:13;;;;;;;0.30;0.30;;;;;;;16.75;69.80;101837.16;2108941;28;20085;-71
2022/08/27 02:08:16;;;;;;;0.30;0.30;;;;;;;16.76;69.48;101838.75;2105124;28;20054;-71
2022/08/27 02:09:19;;;;;;;0.38;0.38;;;;;;;16.73;69.38;101834.00;2098081;28;20121;-71
2022/08/27 02:10:23;;;;;;;0.30;0.30;;;;;;;16.68;69.68;101833.50;2098675;28;20113;-71
2022/08/27 02:11:28;;;;;;;0.30;0.30;;;;;;;16.66;69.88;101835.78;2098344;28;20484;-71
2022/08/27 02:12:30;;;;;;;0.30;0.30;;;;;;;16.62;69.89;101829.50;2106277;28;20418;-71
2022/08/27 02:13:34;;;;;;;0.40;0.40;;;;;;;16.63;70.16;101831.06;2106362;28;20412;-71
2022/08/27 02:14:36;;;;;;;0.40;0.40;;;;;;;16.63;70.32;101831.84;2106061;28;20109;-73
2022/08/27 02:15:40;;;;;;;0.40;0.40;;;;;;;16.64;70.17;101827.97;2106013;28;20056;-71
2022/08/27 02:16:42;;;;;;;0.30;0.30;;;;;;;16.66;70.16;101831.16;2102478;28;20096;-71
2022/08/27 02:17:54;;;;;;;0.30;0.30;;;;;;;16.66;70.12;101825.69;2097851;28;20052;-71
2022/08/27 02:18:56;;;;;;;0.30;0.30;;;;;;;16.69;70.00;101832.34;2097075;28;20077;-70
2022/08/27 02:20:00;;;;;;;0.30;0.30;;;;;;;16.70;69.80;101828.50;2096938;28;20052;-71
2022/08/27 02:21:02;;;;;;;0.28;0.28;;;;;;;16.74;69.96;101832.06;2097781;28;20067;-71
2022/08/27 02:22:05;;;;;;;0.30;0.30;;;;;;;16.74;70.05;101823.91;2105412;28;20123;-71
2022/08/27 02:23:07;;;;;;;0.30;0.30;;;;;;;16.78;69.79;101833.72;2103239;28;20135;-70
2022/08/27 02:24:12;;;;;;;0.30;0.30;;;;;;;16.77;69.71;101828.63;2097712;28;20056;-69
2022/08/27 02:25:20;;;;;;;0.30;0.30;;;;;;;16.78;69.60;101827.47;2111860;28;20059;-65
2022/08/27 02:26:23;;;;;;;0.30;0.30;;;;;;;16.78;69.76;101824.75;2111015;28;20064;-69
2022/08/27 02:27:26;;;;;;;0.38;0.38;;;;;;;16.80;69.62;101825.19;2106317;28;20052;-70
2022/08/27 02:28:29;;;;;;;0.40;0.40;;;;;;;16.81;69.56;101826.78;2106995;28;20044;-69
2022/08/27 02:29:33;;;;;;;0.30;0.30;;;;;;;16.80;69.78;101822.47;2105150;28;20094;-69
2022/08/27 02:30:36;;;;;;;0.30;0.30;;;;;;;16.82;69.76;101825.63;2097818;28;20127;-69
2022/08/27 02:31:40;;;;;;;0.30;0.30;;;;;;;16.80;69.82;101814.28;2106567;28;20051;-69
2022/08/27 02:32:46;;;;;;;0.30;0.30;;;;;;;16.80;69.96;101819.72;2112743;28;20145;-69
2022/08/27 02:33:48;;;;;;;0.30;0.30;;;;;;;16.77;69.96;101821.25;2097796;28;20052;-70
2022/08/27 02:34:50;;;;;;;0.30;0.30;;;;;;;16.73;70.29;101823.09;2097510;28;20056;-70
2022/08/27 02:35:53;;;;;;;0.30;0.30;;;;;;;16.71;70.69;101822.69;2097448;28;20496;-69
2022/08/27 02:36:56;;;;;;;0.30;0.30;;;;;;;16.72;70.34;101818.00;2097740;28;20097;-70
2022/08/27 02:37:59;;;;;;;0.30;0.30;;;;;;;16.73;70.33;101825.06;2101378;28;20457;-70
2022/08/27 02:39:02;;;;;;;0.30;0.30;;;;;;;16.71;70.35;101811.78;2105920;28;20091;-70
2022/08/27 02:40:05;;;;;;;0.30;0.30;;;;;;;16.73;70.48;101822.31;2113726;28;20059;-70
2022/08/27 02:41:08;;;;;;;0.30;0.30;;;;;;;16.69;70.80;101819.53;2106201;28;20131;-70
2022/08/27 02:42:10;;;;;;;0.30;0.30;;;;;;;16.67;70.72;101810.09;2106095;28;20104;-70
2022/08/27 02:43:14;;;;;;;0.30;0.30;;;;;;;16.68;70.80;101817.16;2113119;28;20104;-70
2022/08/27 02:44:26;;;;;;;0.30;0.30;;;;;;;16.61;71.04;101817.00;2113622;28;20126;-70
2022/08/27 02:45:30;;;;;;;0.30;0.30;;;;;;;16.63;71.11;101814.69;2114427;28;20113;-70
2022/08/27 02:46:32;;;;;;;0.30;0.30;;;;;;;16.63;71.35;101817.44;2105590;28;20515;-70
2022/08/27 02:47:35;;;;;;;0.30;0.30;;;;;;;16.66;71.32;101813.97;2105055;28;20059;-70
2022/08/27 02:48:38;;;;;;;0.30;0.30;;;;;;;16.68;71.53;101808.97;2105927;28;20064;-70
2022/08/27 02:49:41;;;;;;;0.30;0.30;;;;;;;16.71;71.29;101816.44;2105704;28;20072;-70
2022/08/27 02:50:44;;;;;;;0.30;0.30;;;;;;;16.73;71.28;101819.59;2105204;28;20048;-70
2022/08/27 02:51:53;;;;;;;0.22;0.22;;;;;;;16.75;71.06;101811.81;2106085;28;20096;-70
2022/08/27 02:52:55;;;;;;;0.20;0.20;;;;;;;16.78;71.38;101822.03;2113616;28;20051;-70
2022/08/27 02:53:58;;;;;;;0.30;0.30;;;;;;;16.83;71.20;101814.34;2110087;28;20075;-70
2022/08/27 02:55:00;;;;;;;0.30;0.30;;;;;;;16.85;71.07;101812.06;2105999;28;20500;-70
2022/08/27 02:56:04;;;;;;;0.32;0.32;;;;;;;16.89;71.09;101823.81;2098178;28;20110;-70
2022/08/27 02:57:06;;;;;;;0.30;0.30;;;;;;;16.94;70.94;101817.28;2101714;28;20082;-70
2022/08/27 02:58:09;;;;;;;0.38;0.38;;;;;;;16.96;71.04;101823.19;2113622;28;20051;-70
2022/08/27 02:59:16;;;;;;;0.38;0.38;;;;;;;16.99;70.74;101827.91;2112866;28;20048;-67
2022/08/27 03:00:22;;;;;;;0.30;0.30;;;;;;;17.02;70.82;101828.00;2111379;28;20121;-65
2022/08/27 03:01:24;;;;;;;0.30;0.30;;;;;;;17.03;70.82;101823.34;2113522;28;20147;-65
2022/08/27 03:02:27;;;;;;;0.30;0.30;;;;;;;17.05;70.65;101827.28;2112959;28;20051;-65
2022/08/27 03:03:30;;;;;;;0.25;0.25;;;;;;;17.07;70.92;101829.63;2111928;28;20047;-65
2022/08/27 03:04:33;;;;;;;0.20;0.20;;;;;;;17.09;70.99;101827.34;2114230;28;20100;-65
2022/08/27 03:05:35;;;;;;;0.28;0.28;;;;;;;17.13;70.74;101822.72;2111840;28;20059;-65
2022/08/27 03:06:38;;;;;;;0.30;0.30;;;;;;;17.12;70.87;101821.97;2111602;28;20127;-65
2022/08/27 03:07:40;;;;;;;0.30;0.30;;;;;;;17.16;70.98;101827.47;2114125;28;20105;-65
2022/08/27 03:08:43;;;;;;;0.30;0.30;;;;;;;17.16;70.93;101825.53;2106449;28;20056;-65
2022/08/27 03:09:53;;;;;;;0.30;0.30;;;;;;;17.17;70.70;101816.19;2105459;28;20067;-65
2022/08/27 03:10:56;;;;;;;0.30;0.30;;;;;;;17.19;70.66;101824.00;2114054;28;20093;-65
2022/08/27 03:11:58;;;;;;;0.22;0.22;;;;;;;17.22;70.74;101818.63;2111259;28;20065;-65
2022/08/27 03:13:01;;;;;;;0.30;0.30;;;;;;;17.23;70.79;101819.44;2111476;28;20039;-65
2022/08/27 03:14:03;;;;;;;0.30;0.30;;;;;;;17.25;70.69;101817.13;2114038;28;20445;-65
2022/08/27 03:15:12;;;;;;;0.30;0.30;;;;;;;17.27;70.55;101820.28;2107037;28;20047;-65
2022/08/27 03:16:14;;;;;;;0.32;0.32;;;;;;;17.27;70.68;101812.09;2104557;28;20139;-66
2022/08/27 03:18:40;;;;;;;0.30;0.30;;;;;;;17.24;70.65;101813.59;2086240;28;20139;-67
2022/08/27 03:19:42;;;;;;;0.30;0.30;;;;;;;17.27;71.09;101817.53;2111589;28;20072;-66
2022/08/27 03:20:48;;;;;;;0.25;0.25;;;;;;;17.29;70.45;101809.78;2114147;28;20052;-66
2022/08/27 03:21:50;;;;;;;0.30;0.30;;;;;;;17.27;70.74;101817.53;2111212;28;20096;-66
2022/08/27 03:22:56;;;;;;;0.30;0.30;;;;;;;17.28;70.86;101814.44;2109652;28;20131;-66
2022/08/27 03:24:00;;;;;;;0.30;0.30;;;;;;;17.28;70.96;101809.00;2105501;28;20052;-66
2022/08/27 03:25:15;;;;;;;0.30;0.30;;;;;;;17.27;70.78;101814.81;2112268;28;20341;-67
2022/08/27 03:26:18;;;;;;;0.20;0.20;;;;;;;17.29;70.79;101815.25;2108380;28;20053;-66
2022/08/27 03:27:21;;;;;;;0.30;0.30;;;;;;;17.28;70.90;101811.72;2097259;28;20049;-66
2022/08/27 03:28:27;;;;;;;0.30;0.30;;;;;;;17.31;70.71;101812.97;2100049;28;20230;-66
2022/08/27 03:29:30;;;;;;;0.30;0.30;;;;;;;17.27;70.66;101807.44;2096491;28;20121;-66
2022/08/27 03:30:37;;;;;;;0.30;0.30;;;;;;;17.28;70.64;101814.44;2097371;28;20060;-65
2022/08/27 03:31:40;;;;;;;0.30;0.30;;;;;;;17.28;70.93;101813.69;2097186;28;20547;-66
2022/08/27 03:32:42;;;;;;;0.30;0.30;;;;;;;17.27;70.98;101812.09;2097348;28;20052;-66
2022/08/27 03:33:45;;;;;;;0.20;0.20;;;;;;;17.27;70.93;101814.81;2097319;28;20064;-66
2022/08/27 03:34:47;;;;;;;0.30;0.30;;;;;;;17.25;70.84;101814.41;2097628;28;20177;-66
2022/08/27 03:35:50;;;;;;;0.30;0.30;;;;;;;17.25;71.11;101817.13;2097222;28;20060;-66
2022/08/27 03:36:59;;;;;;;0.30;0.30;;;;;;;17.26;71.12;101818.69;2097110;28;20181;-66
2022/08/27 03:38:01;;;;;;;0.30;0.30;;;;;;;17.23;70.89;101817.50;2097139;28;20094;-66
2022/08/27 03:39:04;;;;;;;0.40;0.40;;;;;;;17.24;71.03;101808.16;2097222;28;20131;-66
2022/08/27 03:40:07;;;;;;;0.30;0.30;;;;;;;17.23;71.22;101812.03;2097116;28;20056;-66
2022/08/27 03:41:12;;;;;;;0.30;0.30;;;;;;;17.22;71.05;101815.13;2100920;28;20068;-66
2022/08/27 03:42:15;;;;;;;0.30;0.30;;;;;;;17.22;70.85;101812.41;2097151;28;20055;-67
2022/08/27 03:43:21;;;;;;;0.30;0.30;;;;;;;17.20;71.15;101811.97;2104746;28;20419;-66
2022/08/27 03:44:24;;;;;;;0.30;0.30;;;;;;;17.19;71.08;101810.38;2105123;28;20086;-66
2022/08/27 03:45:28;;;;;;;0.30;0.30;;;;;;;17.17;71.23;101812.69;2104781;28;20040;-66
2022/08/27 03:46:51;;;;;;;0.30;0.30;;;;;;;17.13;71.38;101812.63;2096803;28;20549;-66
2022/08/27 03:47:55;;;;;;;0.30;0.30;;;;;;;17.11;71.31;101811.41;2103650;28;20068;-66
2022/08/27 03:48:57;;;;;;;0.30;0.30;;;;;;;17.11;71.41;101808.69;2103570;28;20079;-66
2022/08/27 03:50:02;;;;;;;0.40;0.40;;;;;;;17.08;71.68;101806.66;2097135;28;20052;-66
2022/08/27 03:51:08;;;;;;;0.30;0.30;;;;;;;17.07;71.35;101805.88;2097600;28;20071;-66
2022/08/27 03:52:13;;;;;;;0.30;0.30;;;;;;;17.06;71.38;101806.25;2097201;28;20063;-66
2022/08/27 03:53:19;;;;;;;0.30;0.30;;;;;;;17.04;71.32;101803.06;2097099;28;20048;-66
2022/08/27 03:54:23;;;;;;;0.30;0.30;;;;;;;17.02;71.52;101805.38;2097236;28;20130;-66
2022/08/27 03:55:26;;;;;;;0.30;0.30;;;;;;;17.00;71.68;101796.78;2097089;28;20045;-66
2022/08/27 03:56:31;;;;;;;0.30;0.30;;;;;;;17.01;71.66;101806.53;2096705;28;20064;-66
2022/08/27 03:57:34;;;;;;;0.30;0.30;;;;;;;16.97;71.96;101795.53;2103672;28;20067;-66
2022/08/27 03:58:39;;;;;;;0.30;0.30;;;;;;;16.96;71.78;101806.81;2107133;28;20052;-67
2022/08/27 03:59:41;;;;;;;0.40;0.40;;;;;;;16.95;71.75;101805.25;2113776;28;20097;-66
2022/08/27 04:00:45;;;;;;;0.38;0.38;;;;;;;16.94;71.80;101798.19;2112700;28;20062;-66
2022/08/27 04:01:48;;;;;;;0.40;0.40;;;;;;;16.90;72.07;101802.81;2111193;28;20063;-66
2022/08/27 04:02:54;;;;;;;0.38;0.38;;;;;;;16.89;71.97;101796.53;2105583;28;20074;-66
2022/08/27 04:03:57;;;;;;;0.30;0.30;;;;;;;16.86;71.99;101800.00;2105327;28;20054;-66
2022/08/27 04:05:01;;;;;;;0.40;0.40;;;;;;;16.82;72.07;101796.41;2106597;28;20080;-66
2022/08/27 04:06:05;;;;;;;0.40;0.40;;;;;;;16.81;72.25;101800.28;2113992;28;20467;-66
2022/08/27 04:07:08;;;;;;;0.40;0.40;;;;;;;16.80;72.47;101797.91;2113084;28;20039;-66
2022/08/27 04:08:12;;;;;;;0.40;0.40;;;;;;;16.79;72.60;101799.06;2112805;28;20054;-66
2022/08/27 04:09:15;;;;;;;0.50;0.50;;;;;;;16.79;72.43;101796.34;2113755;28;20113;-66
2022/08/27 04:10:20;;;;;;;0.40;0.40;;;;;;;16.77;72.65;101796.69;2107170;28;20048;-66
2022/08/27 04:11:22;;;;;;;0.32;0.32;;;;;;;16.76;72.77;101792.38;2105798;28;20087;-66
2022/08/27 04:12:26;;;;;;;0.40;0.40;;;;;;;16.76;72.72;101789.66;2113904;28;20056;-66
2022/08/27 04:13:29;;;;;;;0.38;0.38;;;;;;;16.74;72.82;101799.34;2111949;28;20062;-66
2022/08/27 04:14:32;;;;;;;0.40;0.40;;;;;;;16.74;72.75;101796.63;2111767;28;20075;-66
2022/08/27 04:15:34;;;;;;;0.40;0.40;;;;;;;16.73;72.76;101800.50;2113908;28;20491;-66
2022/08/27 04:16:42;;;;;;;0.32;0.32;;;;;;;16.70;72.97;101801.22;2107565;28;20044;-66
2022/08/27 04:17:44;;;;;;;0.40;0.40;;;;;;;16.69;72.67;101797.69;2105060;28;20465;-66
2022/08/27 04:18:48;;;;;;;0.40;0.40;;;;;;;16.69;72.93;101794.97;2113757;28;20055;-66
2022/08/27 04:19:51;;;;;;;0.40;0.40;;;;;;;16.69;73.14;101802.34;2104331;28;20178;-66
2022/08/27 04:20:54;;;;;;;0.40;0.40;;;;;;;16.69;73.27;101797.69;2097144;28;20120;-66
2022/08/27 04:22:00;;;;;;;0.35;0.35;;;;;;;16.69;73.11;101789.53;2096952;28;20048;-66
2022/08/27 04:23:04;;;;;;;0.40;0.40;;;;;;;16.70;73.34;101798.50;2099714;28;20052;-66
2022/08/27 04:24:08;;;;;;;0.40;0.40;;;;;;;16.72;73.43;101790.72;2104571;28;20056;-65
2022/08/27 04:25:11;;;;;;;0.38;0.38;;;;;;;16.75;73.18;101790.00;2097876;28;20593;-66
2022/08/27 04:26:13;;;;;;;0.40;0.40;;;;;;;16.77;73.13;101787.72;2096878;28;20491;-66
2022/08/27 04:27:16;;;;;;;0.20;0.20;;;;;;;16.78;73.21;101795.53;2097076;28;20053;-65
2022/08/27 04:28:18;;;;;;;0.40;0.40;;;;;;;16.79;73.18;101794.38;2100455;28;20097;-66
2022/08/27 04:29:21;;;;;;;0.30;0.30;;;;;;;16.81;72.71;101796.78;2097032;28;20125;-66
2022/08/27 04:30:23;;;;;;;0.40;0.40;;;;;;;16.82;72.83;101795.63;2096813;28;20135;-66
2022/08/27 04:31:26;;;;;;;0.30;0.30;;;;;;;16.80;72.92;101787.81;2096645;28;20438;-66
2022/08/27 04:32:29;;;;;;;0.30;0.30;;;;;;;16.81;72.63;101785.88;2096992;28;20053;-66
2022/08/27 04:33:32;;;;;;;0.40;0.40;;;;;;;16.82;72.64;101790.16;2097039;28;20067;-66
2022/08/27 04:34:35;;;;;;;0.40;0.40;;;;;;;16.84;72.58;101785.16;2096780;28;20117;-66
2022/08/27 04:35:38;;;;;;;0.40;0.40;;;;;;;16.82;72.51;101790.97;2096787;28;20113;-66
2022/08/27 04:36:40;;;;;;;0.40;0.40;;;;;;;16.82;72.63;101795.63;2096762;28;20389;-66
2022/08/27 04:37:43;;;;;;;0.38;0.38;;;;;;;16.81;72.75;101794.06;2099593;28;20156;-66
2022/08/27 04:38:45;;;;;;;0.40;0.40;;;;;;;16.83;72.57;101794.47;2113008;28;20059;-66
2022/08/27 04:39:48;;;;;;;0.30;0.30;;;;;;;16.81;72.76;101785.88;2113252;28;20465;-65
2022/08/27 04:42:12;;;;;;;;;;;;;;;16.62;73.17;101794.03;2105966;28;20152;-66
2022/08/27 04:43:15;;;;;;;0.40;0.40;;;;;;;16.73;73.02;101795.06;2112660;28;19985;-66
2022/08/27 04:44:19;;;;;;;0.40;0.40;;;;;;;16.75;72.98;101795.47;2112823;28;20051;-66
2022/08/27 04:45:21;;;;;;;0.40;0.40;;;;;;;16.78;73.08;101795.53;2113729;28;20444;-66
2022/08/27 04:46:26;;;;;;;0.40;0.40;;;;;;;16.82;73.02;101799.16;2113052;28;20043;-66
2022/08/27 04:47:28;;;;;;;0.40;0.40;;;;;;;16.85;72.59;101794.91;2110366;28;20132;-66
2022/08/27 04:48:31;;;;;;;0.40;0.40;;;;;;;16.85;72.80;101795.69;2104564;28;20052;-66
2022/08/27 04:49:36;;;;;;;0.40;0.40;;;;;;;16.88;73.05;101796.91;2110628;28;20504;-66
2022/08/27 04:50:40;;;;;;;0.40;0.40;;;;;;;16.90;72.79;101803.59;2111086;28;20111;-66
2022/08/27 04:51:44;;;;;;;0.40;0.40;;;;;;;16.88;72.95;101797.72;2105251;28;20123;-66
2022/08/27 04:52:49;;;;;;;0.38;0.38;;;;;;;16.91;72.81;101793.47;2110973;28;20495;-66
2022/08/27 04:53:57;;;;;;;0.40;0.40;;;;;;;16.91;72.86;101805.16;2112994;28;20055;-66
2022/08/27 04:55:04;;;;;;;0.40;0.40;;;;;;;16.91;72.65;101804.38;2113833;28;20043;-66
2022/08/27 04:56:07;;;;;;;0.40;0.40;;;;;;;16.92;72.96;101800.50;2112454;28;20047;-66
2022/08/27 04:57:17;;;;;;;0.50;0.50;;;;;;;16.92;72.43;101803.25;2108641;28;20044;-66
2022/08/27 04:58:23;;;;;;;0.40;0.40;;;;;;;16.95;72.21;101795.09;2105109;28;20044;-66
2022/08/27 04:59:35;;;;;;;0.40;0.40;;;;;;;16.95;72.55;101805.25;2096890;28;20112;-66
2022/08/27 05:00:47;;;;;;;0.43;0.43;;;;;;;16.94;72.53;101800.91;2101329;28;20464;-66